Time;durP1;ratioP1;P1;durP2;ratioP2;P2;SDS_P1;SDS_P2;PMS_P1;PMS_P2;Temp;Humidity;BMP_temperature;BMP_pressure;BME280_temperature;BME280_humidity;BME280_pressure;Samples;Min_cycle;Max_cycle;Signal;HPM_P1;HPM_P2
2022/10/07 00:01:36;;;;;;;2.78;1.73;;;10.60;99.90;;;;;;6226429;23;20013;-84
2022/10/07 00:04:03;;;;;;;4.70;3.35;;;10.60;99.90;;;;;;6193550;23;20035;-84
2022/10/07 00:06:34;;;;;;;3.85;2.65;;;10.60;99.90;;;;;;6226349;23;20459;-84
2022/10/07 00:09:04;;;;;;;8.40;3.08;;;10.60;99.90;;;;;;6216322;23;20024;-84
2022/10/07 00:11:32;;;;;;;6.78;4.00;;;10.70;99.90;;;;;;6195110;23;20543;-85
2022/10/07 00:14:02;;;;;;;5.35;2.85;;;10.60;99.90;;;;;;6226607;23;20012;-84
2022/10/07 00:16:36;;;;;;;3.78;3.17;;;10.60;99.90;;;;;;6218388;23;20562;-84
2022/10/07 00:19:10;;;;;;;9.07;4.15;;;10.60;99.90;;;;;;6224012;23;20024;-84
2022/10/07 00:21:40;;;;;;;3.53;3.15;;;10.60;99.90;;;;;;6215525;23;20028;-84
2022/10/07 00:24:09;;;;;;;6.50;3.53;;;10.60;99.90;;;;;;6220187;23;20028;-84
2022/10/07 00:26:39;;;;;;;;;;;10.50;99.90;;;;;;6200495;23;20452;-84
2022/10/07 00:29:09;;;;;;;2.00;1.83;;;10.50;99.90;;;;;;6215490;23;20251;-84
2022/10/07 00:31:37;;;;;;;2.13;1.95;;;10.40;99.90;;;;;;6222068;23;20021;-84
2022/10/07 00:34:04;;;;;;;2.92;2.17;;;10.30;99.90;;;;;;6226419;23;20012;-84
2022/10/07 00:36:36;;;;;;;2.40;2.20;;;10.20;99.90;;;;;;6191334;23;20031;-84
2022/10/07 00:39:07;;;;;;;2.42;2.30;;;10.20;99.90;;;;;;6224133;23;20021;-84
2022/10/07 00:41:42;;;;;;;2.28;1.95;;;10.10;99.90;;;;;;6198874;23;20016;-84
2022/10/07 00:44:30;;;;;;;2.55;2.33;;;10.20;99.90;;;;;;6219691;23;20028;-84
2022/10/07 00:47:26;;;;;;;2.63;1.95;;;10.20;99.90;;;;;;6224387;23;20019;-84
2022/10/07 00:50:11;;;;;;;1.70;1.60;;;10.10;99.90;;;;;;6214201;23;20048;-84
2022/10/07 00:52:48;;;;;;;1.70;1.60;;;10.10;99.90;;;;;;6216940;23;20024;-84
2022/10/07 00:55:20;;;;;;;2.40;2.20;;;10.10;99.90;;;;;;6222898;23;20012;-84
2022/10/07 00:57:49;;;;;;;3.33;1.85;;;10.10;99.90;;;;;;6225524;23;20013;-84
2022/10/07 01:00:20;;;;;;;2.72;2.53;;;10.00;99.90;;;;;;6202849;23;20035;-84
2022/10/07 01:02:48;;;;;;;6.32;2.00;;;9.90;99.90;;;;;;6241908;23;20332;-84
2022/10/07 01:05:18;;;;;;;77.72;18.90;;;9.90;99.90;;;;;;6256333;23;20328;-84
2022/10/07 01:07:47;;;;;;;4.47;3.10;;;9.80;99.90;;;;;;6223359;22;20019;-84
2022/10/07 01:10:18;;;;;;;2.95;1.98;;;9.70;99.90;;;;;;6256059;23;20016;-84
2022/10/07 01:13:03;;;;;;;2.30;2.10;;;9.60;99.90;;;;;;6192740;23;20031;-84
2022/10/07 01:15:56;;;;;;;9.73;2.88;;;9.70;99.90;;;;;;6210550;23;20047;-84
2022/10/07 01:18:30;;;;;;;2.38;2.28;;;9.70;99.90;;;;;;6229581;23;20012;-84
2022/10/07 01:21:05;;;;;;;3.40;2.00;;;9.70;99.90;;;;;;6245635;23;20020;-84
2022/10/07 01:23:38;;;;;;;2.50;2.30;;;9.40;99.90;;;;;;6225273;23;20012;-84
2022/10/07 01:26:24;;;;;;;2.42;2.22;;;9.10;99.90;;;;;;6255725;23;20012;-84
2022/10/07 01:28:58;;;;;;;2.05;1.95;;;9.10;99.90;;;;;;6219917;23;20024;-84
2022/10/07 01:31:36;;;;;;;1.80;1.70;;;9.10;99.90;;;;;;6252575;22;20023;-84
2022/10/07 01:34:10;;;;;;;5.82;2.55;;;9.20;99.90;;;;;;6193871;23;20027;-84
2022/10/07 01:36:49;;;;;;;2.30;2.10;;;9.10;99.90;;;;;;6220751;23;20024;-84
2022/10/07 02:04:29;;;;;;;2.67;2.47;;;9.20;99.90;;;;;;6183899;23;20028;-83
2022/10/07 02:07:36;;;;;;;2.00;1.90;;;9.20;99.90;;;;;;6168649;23;20009;-83
2022/10/07 02:10:26;;;;;;;4.70;2.20;;;9.20;99.90;;;;;;6193758;23;20013;-83
2022/10/07 02:13:05;;;;;;;3.03;1.95;;;9.30;99.90;;;;;;6132266;23;20377;-83
2022/10/07 02:15:46;;;;;;;3.88;2.80;;;9.30;99.90;;;;;;6189417;23;20025;-83
2022/10/07 02:18:19;;;;;;;3.50;2.85;;;9.30;99.90;;;;;;6135125;23;20013;-83
2022/10/07 02:20:50;;;;;;;4.82;3.20;;;9.30;99.90;;;;;;6158534;23;20024;-83
2022/10/07 02:23:22;;;;;;;3.75;3.25;;;9.30;99.90;;;;;;6165532;23;20340;-82
2022/10/07 02:25:52;;;;;;;5.07;3.15;;;9.20;99.90;;;;;;6159155;23;20017;-83
2022/10/07 02:28:23;;;;;;;2.67;2.47;;;9.10;99.90;;;;;;6157672;23;20345;-82
2022/10/07 02:30:58;;;;;;;2.47;2.28;;;9.10;99.90;;;;;;6157825;23;20347;-82
2022/10/07 02:33:29;;;;;;;5.60;3.13;;;9.10;99.90;;;;;;6169363;23;20012;-83
2022/10/07 02:36:23;;;;;;;4.85;3.20;;;9.20;99.90;;;;;;6133816;23;20029;-83
2022/10/07 02:38:55;;;;;;;6.13;2.75;;;9.30;99.90;;;;;;6157803;23;20016;-82
2022/10/07 02:41:54;;;;;;;3.97;1.70;;;9.10;99.90;;;;;;6194593;23;20020;-83
2022/10/07 02:44:48;;;;;;;2.92;2.67;;;9.00;99.90;;;;;;6129487;23;20026;-83
2022/10/07 02:47:32;;;;;;;2.97;2.77;;;9.00;99.90;;;;;;6135552;23;20029;-83
2022/10/07 02:50:06;;;;;;;13.48;3.78;;;9.10;99.90;;;;;;6105072;23;20299;-83
2022/10/07 02:52:34;;;;;;;2.95;2.42;;;9.20;99.90;;;;;;6130783;23;20024;-82
2022/10/07 02:55:08;;;;;;;4.28;3.88;;;9.20;99.90;;;;;;6137058;23;20022;-82
2022/10/07 02:57:39;;;;;;;9.85;2.35;;;9.10;99.90;;;;;;6163070;23;20014;-82
2022/10/07 03:00:08;;;;;;;61.38;16.35;;;9.00;99.90;;;;;;6104188;23;20357;-83
2022/10/07 03:02:56;;;;;;;37.50;7.87;;;8.90;99.90;;;;;;6103622;23;20021;-82
2022/10/07 03:05:33;;;;;;;30.25;8.45;;;8.90;99.90;;;;;;6138932;23;20028;-82
2022/10/07 03:08:08;;;;;;;21.75;7.47;;;8.70;99.90;;;;;;6157532;23;20033;-82
2022/10/07 03:10:37;;;;;;;10.35;5.43;;;8.70;99.90;;;;;;6163578;23;20032;-82
2022/10/07 03:13:07;;;;;;;14.05;5.30;;;8.70;99.90;;;;;;6127595;23;20025;-82
2022/10/07 03:15:39;;;;;;;7.88;4.95;;;8.80;99.90;;;;;;6104197;23;20017;-82
2022/10/07 03:18:25;;;;;;;3.08;2.88;;;8.80;99.90;;;;;;6138957;23;20028;-82
2022/10/07 03:20:59;;;;;;;2.72;2.53;;;8.90;99.90;;;;;;6155172;23;20029;-82
2022/10/07 03:23:28;;;;;;;42.55;8.05;;;8.90;99.90;;;;;;6137469;23;20040;-82
2022/10/07 03:25:57;;;;;;;26.63;12.10;;;8.70;99.90;;;;;;6165869;23;20044;-82
2022/10/07 03:28:34;;;;;;;21.20;7.65;;;8.70;99.90;;;;;;6132891;23;20025;-82
2022/10/07 03:31:07;;;;;;;62.35;16.85;;;8.50;99.90;;;;;;6162736;23;20033;-82
2022/10/07 03:33:39;;;;;;;4.30;2.40;;;8.50;99.90;;;;;;6141211;23;20037;-82
2022/10/07 03:36:44;;;;;;;3.17;2.95;;;8.60;99.90;;;;;;6134387;23;20025;-82
2022/10/07 03:39:12;;;;;;;3.30;2.80;;;8.60;99.90;;;;;;6138083;23;20028;-82
2022/10/07 03:41:40;;;;;;;4.10;3.78;;;8.60;99.90;;;;;;6164907;23;20021;-82
2022/10/07 03:44:09;;;;;;;4.57;3.83;;;8.70;99.90;;;;;;6158621;23;20022;-82
2022/10/07 03:46:36;;;;;;;5.20;4.18;;;8.60;99.90;;;;;;6166725;23;20017;-82
2022/10/07 03:49:04;;;;;;;9.02;4.40;;;8.60;99.90;;;;;;6105857;23;20018;-82
2022/10/07 03:51:32;;;;;;;10.18;6.25;;;8.60;99.90;;;;;;6161081;23;20021;-82
2022/10/07 03:54:00;;;;;;;5.18;4.63;;;8.80;99.90;;;;;;6140610;23;20017;-82
2022/10/07 03:56:33;;;;;;;4.75;3.95;;;8.90;99.90;;;;;;6131894;23;20022;-82
2022/10/07 03:59:00;;;;;;;6.03;4.40;;;8.80;99.90;;;;;;6164664;23;20017;-82
2022/10/07 04:01:30;;;;;;;4.35;3.88;;;8.70;99.90;;;;;;6130076;23;20341;-82
2022/10/07 04:03:59;;;;;;;10.80;4.10;;;8.60;99.90;;;;;;6129714;23;20029;-82
2022/10/07 04:06:30;;;;;;;12.20;3.00;;;8.60;99.90;;;;;;6140553;23;20017;-82
2022/10/07 04:09:02;;;;;;;3.83;3.53;;;8.50;99.90;;;;;;6130583;23;20029;-82
2022/10/07 04:11:29;;;;;;;2.72;2.50;;;8.50;99.90;;;;;;6161721;23;20021;-82
2022/10/07 04:13:59;;;;;;;28.90;8.05;;;8.40;99.90;;;;;;6140462;23;20337;-82
2022/10/07 04:16:28;;;;;;;24.63;7.88;;;8.40;99.90;;;;;;6132579;23;20784;-82
2022/10/07 04:18:56;;;;;;;21.77;8.80;;;8.30;99.90;;;;;;6138523;23;20018;-82
2022/10/07 04:21:26;;;;;;;28.90;8.30;;;8.20;99.90;;;;;;6139981;23;20017;-82
2022/10/07 04:23:53;;;;;;;15.38;6.20;;;8.20;99.90;;;;;;6134508;23;20441;-83
2022/10/07 04:26:22;;;;;;;7.38;5.15;;;8.20;99.90;;;;;;6164410;23;20018;-83
2022/10/07 04:28:50;;;;;;;7.63;4.13;;;8.30;99.90;;;;;;6156936;23;20025;-83
2022/10/07 04:31:20;;;;;;;6.43;3.80;;;8.20;99.90;;;;;;6160992;23;20021;-83
2022/10/07 04:33:54;;;;;;;50.22;9.18;;;8.10;99.90;;;;;;6140201;23;20016;-83
2022/10/07 04:36:59;;;;;;;28.77;8.05;;;7.90;99.90;;;;;;6132421;23;20017;-83
2022/10/07 04:39:27;;;;;;;;;;;7.80;99.90;;;;;;6162835;23;20438;-83
2022/10/07 04:45:01;;;;;;;3.40;3.17;;;7.80;99.90;;;;;;6154351;23;20053;-83
2022/10/07 04:47:33;;;;;;;5.68;3.20;;;7.90;99.90;;;;;;6159248;23;20025;-83
2022/10/07 04:50:02;;;;;;;18.23;4.07;;;7.90;99.90;;;;;;6164367;23;20457;-83
2022/10/07 04:52:30;;;;;;;10.30;4.70;;;7.90;99.90;;;;;;6157765;23;20026;-83
2022/10/07 04:55:01;;;;;;;6.05;3.22;;;7.90;99.90;;;;;;6137802;23;20010;-83
2022/10/07 04:57:28;;;;;;;8.45;4.35;;;7.90;99.90;;;;;;6163709;23;20050;-83
2022/10/07 04:59:56;;;;;;;9.45;3.65;;;7.80;99.90;;;;;;6134196;23;20353;-82
2022/10/07 05:02:23;;;;;;;21.52;6.70;;;7.80;99.90;;;;;;6161621;23;20029;-81
2022/10/07 05:05:02;;;;;;;7.90;4.47;;;7.80;99.90;;;;;;6130065;23;20043;-82
2022/10/07 05:08:01;;;;;;;7.00;3.65;;;8.00;99.90;;;;;;6154580;23;20028;-82
2022/10/07 05:10:28;;;;;;;27.67;8.07;;;8.00;99.90;;;;;;6139417;23;20017;-82
2022/10/07 05:12:56;;;;;;;6.35;4.82;;;8.00;99.90;;;;;;6129087;23;20021;-81
2022/10/07 05:15:24;;;;;;;3.78;3.33;;;8.00;99.90;;;;;;6135982;23;20337;-82
2022/10/07 05:17:54;;;;;;;3.78;3.45;;;8.10;99.90;;;;;;6139349;23;20013;-82
2022/10/07 05:20:24;;;;;;;4.38;3.97;;;8.20;99.90;;;;;;6156908;23;20017;-83
2022/10/07 05:22:51;;;;;;;19.85;4.07;;;8.10;99.90;;;;;;6164126;23;20433;-82
2022/10/07 05:25:19;;;;;;;3.90;3.60;;;8.20;99.90;;;;;;6139737;23;20033;-82
2022/10/07 05:27:54;;;;;;;4.20;3.60;;;8.20;99.90;;;;;;6133421;23;20022;-82
2022/10/07 05:30:22;;;;;;;4.57;4.00;;;8.20;99.90;;;;;;6162098;23;20018;-81
2022/10/07 05:32:50;;;;;;;4.05;3.72;;;8.20;99.90;;;;;;6128115;23;20028;-82
2022/10/07 05:35:17;;;;;;;7.50;4.47;;;8.30;99.90;;;;;;6136552;23;20021;-82
2022/10/07 05:37:45;;;;;;;5.03;4.53;;;8.40;99.90;;;;;;6138657;23;20013;-82
2022/10/07 05:40:19;;;;;;;9.20;7.32;;;8.50;99.90;;;;;;6132285;23;20024;-82
2022/10/07 05:42:47;;;;;;;11.38;8.85;;;8.90;99.90;;;;;;6161615;23;20535;-82
2022/10/07 05:45:15;;;;;;;10.07;7.75;;;9.00;99.90;;;;;;6163954;23;20013;-82
2022/10/07 05:47:42;;;;;;;11.38;9.30;;;9.00;99.90;;;;;;6134419;23;20021;-81
2022/10/07 05:50:11;;;;;;;10.60;7.68;;;9.10;99.90;;;;;;6163088;23;20029;-80
2022/10/07 05:52:39;;;;;;;20.85;10.63;;;9.10;99.90;;;;;;6154359;23;20021;-80
2022/10/07 05:55:07;;;;;;;19.27;8.20;;;9.20;99.90;;;;;;6135984;23;20017;-81
2022/10/07 05:57:35;;;;;;;18.75;11.10;;;9.30;99.90;;;;;;6137489;23;20013;-81
2022/10/07 06:00:03;;;;;;;25.63;15.52;;;9.40;99.90;;;;;;6132187;23;20473;-81
2022/10/07 06:02:39;;;;;;;12.30;9.38;;;9.50;99.90;;;;;;6160402;23;20014;-81
2022/10/07 06:05:08;;;;;;;19.90;11.65;;;9.60;99.90;;;;;;6152145;23;20025;-81
2022/10/07 06:07:37;;;;;;;15.95;10.02;;;9.60;99.90;;;;;;6159663;23;20023;-81
2022/10/07 06:13:06;;;;;;;62.03;21.40;;;9.80;99.90;;;;;;6154017;23;20040;-81
2022/10/07 06:15:35;;;;;;;21.85;14.05;;;10.10;99.90;;;;;;6134279;23;20025;-81
2022/10/07 06:18:04;;;;;;;29.55;16.38;;;10.10;99.90;;;;;;6134297;23;20024;-80
2022/10/07 06:20:32;;;;;;;23.15;11.40;;;10.20;99.90;;;;;;6127034;23;20030;-81
2022/10/07 06:22:59;;;;;;;24.70;13.00;;;10.20;99.90;;;;;;6161256;23;20017;-81
2022/10/07 06:25:28;;;;;;;58.33;21.33;;;10.20;99.90;;;;;;6134719;23;20025;-81
2022/10/07 06:27:56;;;;;;;35.65;15.02;;;10.20;99.90;;;;;;6125748;23;20029;-81
2022/10/07 06:30:26;;;;;;;33.03;16.13;;;10.30;99.90;;;;;;6133051;23;20213;-80
2022/10/07 06:32:55;;;;;;;22.75;13.15;;;10.30;99.90;;;;;;6122655;23;20361;-81
2022/10/07 06:35:28;;;;;;;25.80;12.90;;;10.30;99.90;;;;;;6154145;23;20021;-81
2022/10/07 06:37:56;;;;;;;40.63;19.92;;;10.40;99.90;;;;;;6132873;23;20334;-81
2022/10/07 06:40:25;;;;;;;79.65;20.35;;;10.40;99.90;;;;;;6151152;23;20443;-80
2022/10/07 06:42:52;;;;;;;67.75;21.92;;;10.40;99.90;;;;;;6156607;23;20014;-80
2022/10/07 06:45:31;;;;;;;86.40;23.08;;;10.50;99.90;;;;;;6131758;23;20014;-81
2022/10/07 06:47:59;;;;;;;20.52;14.75;;;10.60;99.90;;;;;;6121130;23;20030;-80
2022/10/07 06:50:27;;;;;;;27.73;16.30;;;10.60;99.90;;;;;;6156213;23;20025;-80
2022/10/07 06:52:55;;;;;;;46.42;19.65;;;10.60;99.90;;;;;;6121690;23;20033;-80
2022/10/07 06:55:23;;;;;;;32.85;19.98;;;10.70;99.90;;;;;;6131848;23;20013;-82
2022/10/07 06:57:50;;;;;;;29.45;14.82;;;10.70;99.90;;;;;;6162045;23;20020;-83
2022/10/07 07:00:21;;;;;;;45.95;21.08;;;10.60;99.90;;;;;;6129248;23;20045;-83
2022/10/07 07:02:49;;;;;;;59.50;21.27;;;10.60;99.90;;;;;;6131035;23;20018;-83
2022/10/07 07:05:16;;;;;;;33.33;16.10;;;10.70;99.90;;;;;;6126771;23;20018;-84
2022/10/07 07:07:57;;;;;;;39.90;19.83;;;10.70;99.90;;;;;;6131554;23;20029;-84
2022/10/07 07:10:30;;;;;;;49.95;21.00;;;10.70;99.90;;;;;;6113635;23;20029;-84
2022/10/07 07:12:59;;;;;;;36.72;19.15;;;10.70;99.90;;;;;;6126622;23;20021;-84
2022/10/07 07:15:31;;;;;;;30.00;19.13;;;10.70;99.90;;;;;;6156407;23;20760;-84
2022/10/07 07:17:59;;;;;;;31.73;13.80;;;10.90;99.90;;;;;;6135230;23;20013;-83
2022/10/07 07:20:34;;;;;;;34.95;15.55;;;10.80;99.90;;;;;;6150759;23;20025;-83
2022/10/07 07:23:10;;;;;;;34.13;14.95;;;10.90;99.90;;;;;;6158355;23;20030;-83
2022/10/07 07:25:39;;;;;;;34.63;16.17;;;10.90;99.90;;;;;;6161237;23;20018;-83
2022/10/07 07:28:07;;;;;;;41.20;18.30;;;10.90;99.90;;;;;;6129230;23;20025;-83
2022/10/07 07:30:37;;;;;;;19.65;12.88;;;10.90;99.90;;;;;;6136556;23;20025;-84
2022/10/07 07:33:07;;;;;;;27.15;16.48;;;10.90;99.90;;;;;;6150667;23;20781;-83
2022/10/07 07:35:38;;;;;;;34.42;19.98;;;11.00;99.90;;;;;;6157167;23;20021;-83
2022/10/07 07:38:07;;;;;;;22.73;15.23;;;11.00;99.90;;;;;;6133292;23;20334;-82
2022/10/07 07:40:37;;;;;;;20.17;14.48;;;10.90;99.90;;;;;;6127544;23;20030;-83
2022/10/07 07:43:07;;;;;;;40.00;15.25;;;10.90;99.90;;;;;;6156003;23;20051;-80
2022/10/07 07:45:36;;;;;;;23.73;16.30;;;11.00;99.90;;;;;;6133850;23;20021;-80
2022/10/07 07:48:04;;;;;;;35.85;16.40;;;11.00;99.90;;;;;;6152411;23;20041;-80
2022/10/07 07:50:33;;;;;;;24.30;13.73;;;11.00;99.90;;;;;;6134022;23;20600;-80
2022/10/07 07:53:03;;;;;;;22.02;14.43;;;11.00;99.90;;;;;;6123223;23;20040;-80
2022/10/07 07:55:30;;;;;;;30.23;16.70;;;11.00;99.90;;;;;;6130135;23;20040;-80
2022/10/07 07:57:58;;;;;;;18.33;12.80;;;11.00;99.90;;;;;;6133565;23;20013;-81
2022/10/07 08:00:26;;;;;;;22.67;15.82;;;11.10;99.90;;;;;;6152326;23;20033;-80
2022/10/07 08:03:01;;;;;;;21.92;13.20;;;11.20;99.90;;;;;;6127577;23;20496;-80
2022/10/07 08:05:32;;;;;;;19.35;15.38;;;11.30;99.90;;;;;;6133851;23;20675;-80
2022/10/07 08:08:00;;;;;;;20.73;11.38;;;11.30;99.90;;;;;;6151741;23;20649;-80
2022/10/07 08:10:28;;;;;;;20.88;14.50;;;11.30;99.90;;;;;;6132783;23;20319;-80
2022/10/07 08:12:56;;;;;;;26.48;16.15;;;11.40;99.90;;;;;;6123691;23;20037;-81
2022/10/07 08:15:23;;;;;;;23.50;12.73;;;11.40;99.90;;;;;;6130835;23;20683;-80
2022/10/07 08:17:52;;;;;;;17.98;13.02;;;11.40;99.90;;;;;;6133656;23;20014;-80
2022/10/07 08:20:20;;;;;;;22.05;14.13;;;11.40;99.90;;;;;;6098610;23;20030;-81
2022/10/07 08:22:48;;;;;;;26.80;15.23;;;11.40;99.90;;;;;;6132992;23;20025;-81
2022/10/07 08:25:17;;;;;;;21.08;12.88;;;11.30;99.90;;;;;;6124170;23;20029;-80
2022/10/07 08:27:45;;;;;;;23.27;13.55;;;11.40;99.90;;;;;;6128575;23;20034;-81
2022/10/07 08:30:13;;;;;;;22.67;14.90;;;11.50;99.90;;;;;;6160137;23;20024;-81
2022/10/07 08:32:40;;;;;;;23.90;14.00;;;11.50;99.90;;;;;;6126156;23;20030;-80
2022/10/07 08:35:07;;;;;;;17.00;10.77;;;11.50;99.90;;;;;;6157683;23;20025;-81
2022/10/07 08:37:35;;;;;;;18.60;12.63;;;11.60;99.90;;;;;;6124106;23;20524;-81
2022/10/07 08:40:03;;;;;;;20.02;12.77;;;11.50;99.90;;;;;;6099597;23;20040;-81
2022/10/07 08:42:37;;;;;;;17.63;12.10;;;11.50;99.90;;;;;;6133957;23;20017;-81
2022/10/07 08:45:09;;;;;;;16.63;11.38;;;11.50;99.90;;;;;;6124165;23;20029;-81
2022/10/07 08:47:42;;;;;;;17.60;12.48;;;11.50;99.90;;;;;;6156105;23;20032;-81
2022/10/07 08:50:40;;;;;;;20.65;13.35;;;11.60;99.90;;;;;;6160158;23;20017;-81
2022/10/07 08:53:19;;;;;;;24.55;16.00;;;11.60;99.90;;;;;;6149546;23;20032;-81
2022/10/07 08:55:58;;;;;;;20.65;12.02;;;11.70;99.90;;;;;;6155333;23;20018;-81
2022/10/07 08:58:47;;;;;;;20.65;13.82;;;11.50;99.90;;;;;;6160850;23;20024;-82
2022/10/07 09:01:30;;;;;;;19.83;12.15;;;11.60;99.90;;;;;;6119917;23;20026;-81
2022/10/07 09:04:29;;;;;;;21.40;15.25;;;11.70;99.90;;;;;;6121262;23;20056;-81
2022/10/07 09:07:00;;;;;;;22.02;15.02;;;11.70;99.90;;;;;;6129377;23;20018;-81
2022/10/07 09:09:37;;;;;;;28.05;17.13;;;11.60;99.90;;;;;;6131265;23;20745;-81
2022/10/07 09:12:09;;;;;;;29.65;19.55;;;11.70;99.90;;;;;;6124697;23;20362;-82
2022/10/07 09:14:40;;;;;;;25.63;12.63;;;11.70;99.90;;;;;;6131198;23;20018;-80
2022/10/07 09:17:17;;;;;;;22.23;13.93;;;11.70;99.90;;;;;;6119883;23;20022;-82
2022/10/07 09:19:48;;;;;;;24.77;15.27;;;11.70;99.90;;;;;;6126700;23;20026;-83
2022/10/07 09:22:20;;;;;;;20.92;13.93;;;11.80;99.90;;;;;;6095115;23;20030;-83
2022/10/07 09:24:51;;;;;;;19.13;13.18;;;11.80;99.90;;;;;;6122441;23;20032;-84
2022/10/07 09:27:21;;;;;;;21.20;13.88;;;11.80;99.90;;;;;;6128124;23;20022;-83
2022/10/07 09:29:50;;;;;;;23.15;16.05;;;11.80;99.90;;;;;;6105812;23;20014;-83
2022/10/07 09:32:18;;;;;;;51.60;26.50;;;11.80;99.90;;;;;;6098659;23;20025;-83
2022/10/07 09:34:46;;;;;;;21.25;13.57;;;11.80;99.90;;;;;;6095102;23;20037;-84
2022/10/07 09:38:18;;;;;;;24.40;14.52;;;11.80;99.90;;;;;;6071794;23;20323;-84
2022/10/07 09:43:40;;;;;;;18.45;13.80;;;11.90;99.90;;;;;;6127464;23;19921;-84
2022/10/07 09:46:35;;;;;;;21.20;14.07;;;11.80;99.90;;;;;;6071255;23;20029;-81
2022/10/07 09:49:04;;;;;;;74.32;45.50;;;11.90;99.90;;;;;;6120295;23;20033;-81
2022/10/07 09:51:34;;;;;;;29.75;15.50;;;12.20;99.90;;;;;;6125966;23;20032;-81
2022/10/07 09:54:04;;;;;;;25.48;15.43;;;12.10;99.90;;;;;;6130929;23;20025;-81
2022/10/07 09:56:38;;;;;;;23.45;12.95;;;12.00;99.90;;;;;;6122619;23;20025;-83
2022/10/07 09:59:27;;;;;;;30.63;18.50;;;12.20;99.90;;;;;;6129097;23;20025;-82
2022/10/07 10:02:17;;;;;;;23.17;14.10;;;12.20;99.90;;;;;;6130016;23;20014;-83
2022/10/07 10:04:55;;;;;;;21.65;14.80;;;12.30;99.90;;;;;;6120453;23;20026;-82
2022/10/07 10:07:37;;;;;;;18.40;13.45;;;12.30;99.90;;;;;;6095326;23;20026;-82
2022/10/07 10:10:20;;;;;;;20.50;15.02;;;12.60;99.90;;;;;;6095832;23;20025;-82
2022/10/07 10:12:52;;;;;;;21.67;15.20;;;12.60;99.90;;;;;;6095491;23;20022;-80
2022/10/07 10:15:38;;;;;;;19.15;12.93;;;12.50;99.90;;;;;;6127593;23;20033;-81
2022/10/07 10:18:33;;;;;;;24.48;17.25;;;12.40;99.90;;;;;;6130867;23;20041;-81
2022/10/07 10:21:21;;;;;;;25.63;15.35;;;12.40;99.90;;;;;;6120768;23;20033;-80
2022/10/07 10:23:51;;;;;;;18.58;12.75;;;12.50;99.90;;;;;;6121089;23;20030;-81
2022/10/07 10:26:43;;;;;;;20.47;14.17;;;12.50;99.90;;;;;;6130459;23;20437;-81
2022/10/07 10:29:39;;;;;;;17.98;14.43;;;12.60;99.90;;;;;;6118705;23;20458;-80
2022/10/07 10:32:26;;;;;;;17.73;14.13;;;12.70;99.90;;;;;;6123348;23;20033;-86
2022/10/07 10:35:12;;;;;;;22.25;17.05;;;12.80;99.90;;;;;;6070677;23;20018;-86
2022/10/07 10:37:39;;;;;;;22.83;13.57;;;12.80;99.90;;;;;;6105273;23;20018;-87
2022/10/07 10:40:28;;;;;;;23.90;14.73;;;12.90;99.90;;;;;;6063564;23;20042;-87
2022/10/07 10:43:44;;;;;;;27.73;16.13;;;12.90;99.90;;;;;;6013705;23;20105;-87
2022/10/07 10:47:16;;;;;;;18.65;14.13;;;13.00;99.90;;;;;;5956514;23;20019;-87
2022/10/07 10:50:31;;;;;;;28.23;15.48;;;13.00;99.90;;;;;;5994934;23;20789;-87
2022/10/07 10:54:32;;;;;;;28.55;13.27;;;13.00;99.90;;;;;;6035839;23;20030;-90
2022/10/07 10:57:26;;;;;;;35.20;18.10;;;13.00;99.90;;;;;;6039327;23;20119;-89
2022/10/07 11:00:07;;;;;;;19.75;12.63;;;13.10;99.90;;;;;;6035600;23;20697;-87
2022/10/07 11:02:38;;;;;;;20.67;14.93;;;13.10;99.90;;;;;;6059861;23;20035;-87
2022/10/07 11:05:28;;;;;;;20.50;14.38;;;13.20;99.90;;;;;;6035895;23;20042;-86
2022/10/07 11:08:41;;;;;;;28.20;20.23;;;13.20;99.90;;;;;;6035151;23;20034;-88
2022/10/07 11:11:21;;;;;;;24.50;15.07;;;13.10;99.90;;;;;;6021099;23;20023;-88
2022/10/07 11:18:44;;;;;;;;;;;;;;;;;;;;;
2022/10/07 11:22:38;;;;;;;23.73;15.55;;;13.30;99.90;;;;;;6079315;23;20033;-89
2022/10/07 11:25:56;;;;;;;25.52;17.20;;;13.50;99.90;;;;;;6077970;23;20018;-88
2022/10/07 11:34:31;;;;;;;20.60;16.80;;;13.30;99.90;;;;;;5986047;23;20032;-89
2022/10/07 11:37:57;;;;;;;18.30;14.50;;;13.30;99.90;;;;;;6096943;23;20022;-87
2022/10/07 11:41:33;;;;;;;25.45;14.57;;;13.30;99.90;;;;;;6079778;23;20037;-88
2022/10/07 11:44:09;;;;;;;24.17;16.73;;;13.30;99.90;;;;;;6076152;23;20022;-89
2022/10/07 11:51:18;;;;;;;23.17;17.08;;;13.40;99.90;;;;;;6030077;23;20034;-89
2022/10/07 11:54:53;;;;;;;21.65;15.63;;;13.30;99.90;;;;;;6093607;23;20037;-90
2022/10/07 12:03:57;;;;;;;;;;;;;;;;;;;;;
2022/10/07 12:08:08;;;;;;;22.42;14.13;;;13.60;99.90;;;;;;5983209;23;20305;-86
2022/10/07 12:11:15;;;;;;;18.77;13.43;;;13.70;99.90;;;;;;5965023;23;20028;-86
2022/10/07 12:14:15;;;;;;;17.35;12.90;;;13.60;99.90;;;;;;6043688;23;20041;-87
2022/10/07 12:16:53;;;;;;;17.90;13.18;;;13.60;99.90;;;;;;6093147;23;20029;-86
2022/10/07 12:19:25;;;;;;;26.83;17.90;;;13.50;99.90;;;;;;6044359;23;20029;-87
2022/10/07 12:22:14;;;;;;;19.35;14.18;;;13.40;99.90;;;;;;6043732;23;20042;-87
2022/10/07 12:29:44;;;;;;;19.08;12.98;;;13.40;99.90;;;;;;6149626;23;20033;-87
2022/10/07 13:23:34;;;;;;;;;;;;;;;;;;;;;
2022/10/07 13:47:06;;;;;;;18.05;12.90;;;13.80;99.90;;;;;;6202034;22;1287709;-83
2022/10/07 13:49:39;;;;;;;16.75;14.65;;;13.90;99.90;;;;;;6198936;23;20037;-83
2022/10/07 13:58:00;;;;;;;17.60;12.65;;;13.90;99.90;;;;;;6027005;23;20517;-86
2022/10/07 14:11:46;;;;;;;17.55;12.40;;;13.90;99.90;;;;;;6123321;23;20009;-86
2022/10/07 14:19:43;;;;;;;16.20;14.35;;;13.90;99.90;;;;;;6062668;23;20032;-87
2022/10/07 14:24:06;;;;;;;18.40;13.23;;;14.00;99.90;;;;;;6025990;23;20030;-86
2022/10/07 14:28:11;;;;;;;;;;;;;;;;;;;;;
2022/10/07 14:35:55;;;;;;;28.10;18.25;;;13.90;99.90;;;;;;6004749;23;20030;-86
2022/10/07 14:39:46;;;;;;;21.20;15.35;;;13.90;99.90;;;;;;5999886;23;20023;-86
2022/10/07 14:46:49;;;;;;;19.67;13.57;;;14.00;99.90;;;;;;5976580;23;20065;-86
2022/10/07 14:49:46;;;;;;;21.10;15.85;;;14.00;99.90;;;;;;5967088;23;20439;-87
2022/10/07 14:52:34;;;;;;;20.60;15.82;;;13.90;99.90;;;;;;5973559;23;20035;-88
2022/10/07 14:55:26;;;;;;;24.30;16.35;;;13.90;99.90;;;;;;6005634;23;20063;-87
2022/10/07 14:58:04;;;;;;;17.80;13.20;;;13.90;99.90;;;;;;5986887;23;20030;-89
2022/10/07 15:00:33;;;;;;;23.70;14.82;;;13.80;99.90;;;;;;5962306;23;20031;-87
2022/10/07 15:04:15;;;;;;;19.08;15.40;;;13.80;99.90;;;;;;5968677;23;20063;-86
2022/10/07 15:09:08;;;;;;;;;;;;;;;;;;;;;
2022/10/07 15:13:09;;;;;;;18.92;15.02;;;13.80;99.90;;;;;;6044732;23;20013;-86
2022/10/07 15:15:47;;;;;;;25.27;15.07;;;14.00;99.90;;;;;;6063524;23;20034;-85
2022/10/07 15:18:17;;;;;;;20.80;13.68;;;13.90;99.90;;;;;;6065689;23;20373;-85
2022/10/07 15:20:53;;;;;;;24.00;18.13;;;14.00;99.90;;;;;;6075671;23;20034;-84
2022/10/07 15:23:23;;;;;;;22.77;14.35;;;13.90;99.90;;;;;;6093835;23;20030;-84
2022/10/07 15:25:56;;;;;;;20.05;14.82;;;13.90;99.90;;;;;;6071029;23;20014;-84
2022/10/07 15:28:34;;;;;;;18.60;15.50;;;13.80;99.90;;;;;;6092380;23;20026;-85
2022/10/07 15:31:06;;;;;;;18.88;14.30;;;13.70;99.90;;;;;;6121198;23;20453;-84
2022/10/07 15:33:35;;;;;;;26.58;16.13;;;13.80;99.90;;;;;;6094705;23;20022;-84
2022/10/07 15:36:10;;;;;;;18.67;13.55;;;13.90;99.90;;;;;;6134916;23;20048;-85
2022/10/07 15:38:39;;;;;;;20.73;14.48;;;13.90;99.90;;;;;;6101120;23;20029;-84
2022/10/07 15:41:06;;;;;;;19.33;14.93;;;14.00;99.90;;;;;;6173315;23;20685;-84
2022/10/07 15:43:34;;;;;;;19.08;14.52;;;14.00;99.90;;;;;;6123652;23;20029;-88
2022/10/07 15:46:18;;;;;;;22.13;15.30;;;14.20;99.90;;;;;;6130968;23;20456;-83
2022/10/07 15:48:46;;;;;;;22.25;16.05;;;14.20;99.90;;;;;;6126790;23;20025;-82
2022/10/07 15:51:14;;;;;;;23.30;14.38;;;14.30;99.90;;;;;;6132879;23;20029;-84
2022/10/07 15:53:54;;;;;;;22.33;15.93;;;14.20;99.90;;;;;;6079335;23;20472;-84
2022/10/07 15:56:24;;;;;;;23.13;16.20;;;14.10;99.90;;;;;;6123804;23;20536;-83
2022/10/07 15:58:52;;;;;;;23.38;14.00;;;14.00;99.90;;;;;;6099766;23;20022;-84
2022/10/07 16:01:19;;;;;;;19.35;14.00;;;14.00;99.90;;;;;;6076685;23;20468;-82
2022/10/07 16:03:48;;;;;;;19.88;15.00;;;13.90;99.90;;;;;;6105903;23;20017;-83
2022/10/07 16:06:24;;;;;;;18.75;13.93;;;13.90;99.90;;;;;;6161216;23;20028;-84
2022/10/07 16:08:56;;;;;;;31.58;18.00;;;13.90;99.90;;;;;;6100342;23;20365;-88
2022/10/07 16:11:33;;;;;;;19.75;14.70;;;13.70;99.90;;;;;;6156999;23;20433;-87
2022/10/07 16:14:10;;;;;;;26.95;15.88;;;13.70;99.90;;;;;;6099586;23;20028;-84
2022/10/07 16:18:00;;;;;;;;;;;;;;;;;;;;;
2022/10/07 16:22:08;;;;;;;24.48;16.55;;;13.40;99.90;;;;;;6069112;23;20915;-85
2022/10/07 16:25:14;;;;;;;19.55;15.38;;;13.20;99.90;;;;;;6029424;23;20098;-85
2022/10/07 16:30:44;;;;;;;22.02;17.38;;;13.00;99.90;;;;;;6092035;23;20026;-87
2022/10/07 16:33:11;;;;;;;24.80;16.77;;;12.80;99.90;;;;;;6108222;23;20033;-86